<?xml version='1.0' encoding='UTF-8'?>
<gpx xmlns="http://www.topografix.com/GPX/1/1" creator="www.balnam.be" version="1.1" xmlns:xsi="http://www.w3.org/2001/XMLSchema-instance" xsi:schemaLocation="http://www.topografix.com/GPX/1/1 http://www.topografix.com/GPX/1/1/gpx.xsd">
<trk>
<name>nasml1</name>
<cmt>r</cmt>
<desc>Maillen Chemin n°1 Rue de Crupet / Route de Dinant / Rue de Mont / ?</desc>
<link href="https://chemins.be/maillen/chemin/1"/><trkseg>
<trkpt lat="50.377283" lon="4.977617"><time>2026-05-03T03:27:14Z</time></trkpt>
<trkpt lat="50.377239" lon="4.975705"><time>2026-05-03T03:37:14Z</time></trkpt>
<trkpt lat="50.377157" lon="4.972596"><time>2026-05-03T03:47:14Z</time></trkpt>
<trkpt lat="50.377153" lon="4.971528"><time>2026-05-03T03:57:14Z</time></trkpt>
<trkpt lat="50.376987" lon="4.970668"><time>2026-05-03T04:07:14Z</time></trkpt>
<trkpt lat="50.376921" lon="4.969543"><time>2026-05-03T04:17:14Z</time></trkpt>
<trkpt lat="50.376823" lon="4.969302"><time>2026-05-03T04:27:14Z</time></trkpt>
<trkpt lat="50.376527" lon="4.969144"><time>2026-05-03T04:37:14Z</time></trkpt>
<trkpt lat="50.376060" lon="4.969054"><time>2026-05-03T04:47:14Z</time></trkpt>
<trkpt lat="50.375416" lon="4.966613"><time>2026-05-03T04:57:14Z</time></trkpt>
<trkpt lat="50.373392" lon="4.966967"><time>2026-05-03T05:07:14Z</time></trkpt>
<trkpt lat="50.372807" lon="4.965357"><time>2026-05-03T05:17:14Z</time></trkpt>
<trkpt lat="50.371844" lon="4.963757"><time>2026-05-03T05:27:14Z</time></trkpt>
<trkpt lat="50.370538" lon="4.960606"><time>2026-05-03T05:37:14Z</time></trkpt>
<trkpt lat="50.369411" lon="4.957780"><time>2026-05-03T05:47:14Z</time></trkpt>
<trkpt lat="50.367525" lon="4.955620"><time>2026-05-03T05:57:14Z</time></trkpt>
<trkpt lat="50.366138" lon="4.954239"><time>2026-05-03T06:07:14Z</time></trkpt>
<trkpt lat="50.364499" lon="4.953123"><time>2026-05-03T06:17:14Z</time></trkpt>
</trkseg></trk>
<trk>
<name>nasml1</name>
<cmt>s</cmt>
<desc>Maillen Chemin n°1 Rue de Crupet / Route de Dinant / Rue de Mont / ?</desc>
<link href="https://chemins.be/maillen/chemin/1"/><trkseg>
<trkpt lat="50.364499" lon="4.953123"><time>2026-05-03T06:17:14Z</time></trkpt>
<trkpt lat="50.363986" lon="4.951416"><time>2026-05-03T06:27:14Z</time></trkpt>
<trkpt lat="50.362905" lon="4.949969"><time>2026-05-03T06:37:14Z</time></trkpt>
</trkseg></trk>
<trk>
<name>nasml1</name>
<cmt>d</cmt>
<desc>Maillen Chemin n°1 Rue de Crupet / Route de Dinant / Rue de Mont / ?</desc>
<link href="https://chemins.be/maillen/chemin/1"/><trkseg>
<trkpt lat="50.362905" lon="4.949969"><time>2026-05-03T06:37:14Z</time></trkpt>
<trkpt lat="50.362645" lon="4.949825"><time>2026-05-03T06:47:14Z</time></trkpt>
<trkpt lat="50.361867" lon="4.948902"><time>2026-05-03T06:57:14Z</time></trkpt>
<trkpt lat="50.361002" lon="4.947613"><time>2026-05-03T07:07:14Z</time></trkpt>
<trkpt lat="50.359844" lon="4.945434"><time>2026-05-03T07:17:14Z</time></trkpt>
</trkseg></trk>
<trk>
<name>nasml1</name>
<cmt>s</cmt>
<desc>Maillen Chemin n°1 Rue de Crupet / Route de Dinant / Rue de Mont / ?</desc>
<link href="https://chemins.be/maillen/chemin/1"/><trkseg>
<trkpt lat="50.359844" lon="4.945434"><time>2026-05-03T07:17:14Z</time></trkpt>
<trkpt lat="50.357750" lon="4.939773"><time>2026-05-03T07:27:14Z</time></trkpt>
<trkpt lat="50.357560" lon="4.938169"><time>2026-05-03T07:37:14Z</time></trkpt>
<trkpt lat="50.357541" lon="4.936651"><time>2026-05-03T07:47:14Z</time></trkpt>
<trkpt lat="50.357549" lon="4.934936"><time>2026-05-03T07:57:14Z</time></trkpt>
<trkpt lat="50.357738" lon="4.933069"><time>2026-05-03T08:07:14Z</time></trkpt>
<trkpt lat="50.358205" lon="4.931360"><time>2026-05-03T08:17:14Z</time></trkpt>
<trkpt lat="50.358490" lon="4.930127"><time>2026-05-03T08:27:14Z</time></trkpt>
<trkpt lat="50.358398" lon="4.928552"><time>2026-05-03T08:37:14Z</time></trkpt>
<trkpt lat="50.358297" lon="4.927089"><time>2026-05-03T08:47:14Z</time></trkpt>
<trkpt lat="50.357972" lon="4.925638"><time>2026-05-03T08:57:14Z</time></trkpt>
<trkpt lat="50.357780" lon="4.924399"><time>2026-05-03T09:07:14Z</time></trkpt>
<trkpt lat="50.357725" lon="4.922754"><time>2026-05-03T09:17:14Z</time></trkpt>
</trkseg></trk>
<trk>
<name>nasml1</name>
<cmt>d</cmt>
<desc>Maillen Chemin n°1 Rue de Crupet / Route de Dinant / Rue de Mont / ?</desc>
<link href="https://chemins.be/maillen/chemin/1"/><trkseg>
<trkpt lat="50.357725" lon="4.922754"><time>2026-05-03T09:17:14Z</time></trkpt>
<trkpt lat="50.357579" lon="4.921660"><time>2026-05-03T09:27:14Z</time></trkpt>
</trkseg></trk>
<trk>
<name>nasml1</name>
<cmt>r</cmt>
<desc>Maillen Chemin n°1 Rue de Crupet / Route de Dinant / Rue de Mont / ?</desc>
<link href="https://chemins.be/maillen/chemin/1"/><trkseg>
<trkpt lat="50.357579" lon="4.921660"><time>2026-05-03T09:27:14Z</time></trkpt>
<trkpt lat="50.357238" lon="4.919333"><time>2026-05-03T09:37:14Z</time></trkpt>
<trkpt lat="50.357462" lon="4.917495"><time>2026-05-03T09:47:14Z</time></trkpt>
<trkpt lat="50.358019" lon="4.915660"><time>2026-05-03T09:57:14Z</time></trkpt>
<trkpt lat="50.358211" lon="4.914722"><time>2026-05-03T10:07:14Z</time></trkpt>
<trkpt lat="50.358245" lon="4.913484"><time>2026-05-03T10:17:14Z</time></trkpt>
<trkpt lat="50.358260" lon="4.912360"><time>2026-05-03T10:27:14Z</time></trkpt>
</trkseg>
</trk>
</gpx>